Time;durP1;ratioP1;P1;durP2;ratioP2;P2;SDS_P1;SDS_P2;PMS_P1;PMS_P2;Temp;Humidity;BMP_temperature;BMP_pressure;BME280_temperature;BME280_humidity;BME280_pressure;Samples;Min_cycle;Max_cycle;Signal;HPM_P1;HPM_P2
2022/12/24 00:02:03;;;;;;;;;;;27.90;99.90;;;;;;5004462;28;19960;-65
2022/12/24 00:04:30;;;;;;;;;;;28.00;99.90;;;;;;5006769;28;19913;-66
2022/12/24 00:06:56;;;;;;;;;;;27.90;99.90;;;;;;5005283;28;19952;-62
2022/12/24 00:09:23;;;;;;;;;;;27.80;99.90;;;;;;5005122;28;19914;-63
2022/12/24 00:11:50;;;;;;;;;;;28.20;99.90;;;;;;5005914;28;19968;-73
2022/12/24 00:14:16;;;;;;;;;;;28.40;99.90;;;;;;5005972;28;20351;-61
2022/12/24 00:16:43;;;;;;;;;;;28.70;99.90;;;;;;5006370;28;19914;-64
2022/12/24 00:19:10;;;;;;;;;;;29.00;99.80;;;;;;5006366;28;19913;-74
2022/12/24 00:21:36;;;;;;;;;;;28.80;99.80;;;;;;5005847;28;19921;-78
2022/12/24 00:24:04;;;;;;;;;;;28.20;99.90;;;;;;5006157;28;19925;-82
2022/12/24 00:26:31;;;;;;;;;;;28.00;99.90;;;;;;5006587;28;20265;-83
2022/12/24 00:28:58;;;;;;;;;;;28.40;99.90;;;;;;5006750;28;20499;-61
2022/12/24 00:31:25;;;;;;;;;;;29.00;99.50;;;;;;5006342;28;19921;-81
2022/12/24 00:33:52;;;;;;;;;;;28.90;99.60;;;;;;5009472;28;19913;-81
2022/12/24 00:36:19;;;;;;;;;;;28.50;99.90;;;;;;5012925;28;19909;-71
2022/12/24 00:38:46;;;;;;;;;;;28.20;99.90;;;;;;5012954;28;19959;-83
2022/12/24 00:41:28;;;;;;;;;;;27.90;99.90;;;;;;5013011;28;19913;-62
2022/12/24 00:43:59;;;;;;;;;;;27.70;99.90;;;;;;5012726;28;19971;-63
2022/12/24 00:46:27;;;;;;;;;;;27.70;99.90;;;;;;5012785;28;19913;-67
2022/12/24 00:48:53;;;;;;;;;;;27.70;99.90;;;;;;5012860;28;20004;-62
2022/12/24 00:51:20;;;;;;;;;;;27.60;99.90;;;;;;5013877;28;19909;-61
2022/12/24 00:53:47;;;;;;;;;;;27.70;99.90;;;;;;5016457;28;19929;-79
2022/12/24 00:56:14;;;;;;;;;;;27.80;99.90;;;;;;5016634;28;20363;-62
2022/12/24 00:58:41;;;;;;;;;;;28.10;99.90;;;;;;5016691;28;20003;-65
2022/12/24 01:01:08;;;;;;;;;;;28.60;99.90;;;;;;5016440;28;19909;-67
2022/12/24 01:03:34;;;;;;;;;;;29.00;99.90;;;;;;5016218;28;19918;-67
2022/12/24 01:06:02;;;;;;;;;;;29.40;99.90;;;;;;5016406;28;19910;-82
2022/12/24 01:08:28;;;;;;;;;;;29.80;99.90;;;;;;5016224;28;19917;-62
2022/12/24 01:10:58;;;;;;;;;;;30.30;99.90;;;;;;5016264;28;20320;-65
2022/12/24 01:13:25;;;;;;;;;;;30.60;99.90;;;;;;5015781;28;19972;-62
2022/12/24 01:15:51;;;;;;;;;;;30.90;99.90;;;;;;5016038;28;19945;-62
2022/12/24 01:18:18;;;;;;;;;;;31.00;99.90;;;;;;5016082;28;19916;-67
2022/12/24 01:20:45;;;;;;;;;;;30.60;99.90;;;;;;5016071;28;19910;-64
2022/12/24 01:23:11;;;;;;;;;;;30.60;99.90;;;;;;5016002;28;19917;-64
2022/12/24 01:25:38;;;;;;;;;;;30.70;99.90;;;;;;5015784;28;19910;-62
2022/12/24 01:28:05;;;;;;;;;;;30.90;99.90;;;;;;5015948;28;19916;-63
2022/12/24 01:30:32;;;;;;;;;;;31.10;99.90;;;;;;5015786;28;19917;-62
2022/12/24 01:32:58;;;;;;;;;;;31.30;99.90;;;;;;5015797;28;19913;-65
2022/12/24 01:35:25;;;;;;;;;;;31.40;99.90;;;;;;5015766;28;20367;-66
2022/12/24 01:37:52;;;;;;;;;;;31.60;99.80;;;;;;5015833;28;20295;-62
2022/12/24 01:43:27;;;;;;;;;;;31.80;99.20;;;;;;5015968;28;19921;-62
2022/12/24 01:45:53;;;;;;;;;;;31.20;99.90;;;;;;5017214;28;19909;-71
2022/12/24 01:48:23;;;;;;;;;;;31.30;99.80;;;;;;5016089;28;19944;-62
2022/12/24 01:50:53;;;;;;;;;;;31.30;99.70;;;;;;5015841;28;19941;-66
2022/12/24 01:53:20;;;;;;;;;;;30.80;99.90;;;;;;5014974;28;19917;-63
2022/12/24 01:55:47;;;;;;;;;;;30.20;99.90;;;;;;5015582;28;20412;-65
2022/12/24 01:58:15;;;;;;;;;;;29.50;99.90;;;;;;5015190;28;19979;-73
2022/12/24 02:00:42;;;;;;;;;;;28.90;99.90;;;;;;5015401;28;20000;-73
2022/12/24 02:03:08;;;;;;;;;;;28.80;99.90;;;;;;5014730;28;19918;-61
2022/12/24 02:05:35;;;;;;;;;;;28.60;99.90;;;;;;5015099;28;19914;-62
2022/12/24 02:08:03;;;;;;;;;;;28.50;99.90;;;;;;5015404;28;19978;-62
2022/12/24 02:10:30;;;;;;;;;;;28.40;99.90;;;;;;5015117;28;19920;-62
2022/12/24 02:12:57;;;;;;;;;;;28.20;99.90;;;;;;5015392;28;19935;-68
2022/12/24 02:15:24;;;;;;;;;;;28.00;99.90;;;;;;5014819;28;19916;-65
2022/12/24 02:17:50;;;;;;;;;;;27.90;99.90;;;;;;5014832;28;19915;-64
2022/12/24 02:20:17;;;;;;;;;;;28.00;99.90;;;;;;5014768;28;19909;-61
2022/12/24 02:23:06;;;;;;;;;;;28.00;99.90;;;;;;5014823;28;20333;-65
2022/12/24 02:25:48;;;;;;;;;;;28.00;99.90;;;;;;5014564;28;20267;-67
2022/12/24 02:28:15;;;;;;;;;;;28.10;99.90;;;;;;5014613;28;20072;-63
2022/12/24 02:30:47;;;;;;;;;;;28.20;99.90;;;;;;5014648;28;19910;-63
2022/12/24 02:33:32;;;;;;;;;;;28.40;99.90;;;;;;5014847;28;20015;-64
2022/12/24 02:36:05;;;;;;;;;;;28.40;99.90;;;;;;5014517;28;20000;-72
2022/12/24 02:38:52;;;;;;;;;;;28.50;99.90;;;;;;5014556;28;20007;-63
2022/12/24 02:41:24;;;;;;;;;;;28.20;99.90;;;;;;4996574;28;20000;-66
2022/12/24 02:43:52;;;;;;;;;;;28.00;99.90;;;;;;5014351;28;19925;-61
2022/12/24 02:46:21;;;;;;;;;;;28.00;99.90;;;;;;5014330;28;20394;-61
2022/12/24 02:48:48;;;;;;;;;;;28.00;99.90;;;;;;5014322;28;19917;-61
2022/12/24 02:51:15;;;;;;;;;;;28.00;99.90;;;;;;5014142;28;19916;-61
2022/12/24 02:53:42;;;;;;;;;;;28.00;99.90;;;;;;5014152;28;20434;-71
2022/12/24 02:56:17;;;;;;;;;;;27.90;99.90;;;;;;5014191;28;19909;-61
2022/12/24 02:58:50;;;;;;;;;;;27.70;99.90;;;;;;5013976;28;20291;-63
2022/12/24 03:01:36;;;;;;;;;;;27.70;99.90;;;;;;5014161;28;19991;-68
2022/12/24 03:04:38;;;;;;;;;;;27.80;99.90;;;;;;5014139;28;20375;-62
2022/12/24 03:07:07;;;;;;;;;;;27.90;99.90;;;;;;5014128;28;20371;-60
2022/12/24 03:09:52;;;;;;;;;;;27.90;99.90;;;;;;5013865;28;19910;-64
2022/12/24 03:12:23;;;;;;;;;;;27.70;99.90;;;;;;5014085;28;19917;-72
2022/12/24 03:14:50;;;;;;;;;;;27.60;99.90;;;;;;5013188;28;20291;-61
2022/12/24 03:17:17;;;;;;;;;;;27.60;99.90;;;;;;5013809;28;20004;-60
2022/12/24 03:19:45;;;;;;;;;;;27.90;99.90;;;;;;5013818;28;19910;-74
2022/12/24 03:22:12;;;;;;;;;;;27.90;99.90;;;;;;5013637;28;19917;-61
2022/12/24 03:24:39;;;;;;;;;;;28.00;99.90;;;;;;5013671;28;19918;-65
2022/12/24 03:27:07;;;;;;;;;;;27.90;99.90;;;;;;5012403;28;19917;-62
2022/12/24 03:29:34;;;;;;;;;;;27.90;99.90;;;;;;5013392;28;19917;-61
2022/12/24 03:32:03;;;;;;;;;;;28.00;99.90;;;;;;5013412;28;19910;-63
2022/12/24 03:34:30;;;;;;;;;;;28.00;99.90;;;;;;5013479;28;19979;-63
2022/12/24 03:36:56;;;;;;;;;;;28.00;99.90;;;;;;5013483;28;19914;-65
2022/12/24 03:39:23;;;;;;;;;;;27.90;99.90;;;;;;5013296;28;19917;-62
2022/12/24 03:41:50;;;;;;;;;;;27.90;99.90;;;;;;5013398;28;19909;-65
2022/12/24 03:44:16;;;;;;;;;;;27.80;99.90;;;;;;5013471;28;19924;-62
2022/12/24 03:46:43;;;;;;;;;;;27.80;99.90;;;;;;5013371;28;19910;-66
2022/12/24 03:49:10;;;;;;;;;;;27.80;99.90;;;;;;5013552;28;19996;-62
2022/12/24 03:51:36;;;;;;;;;;;27.70;99.90;;;;;;5013209;28;19972;-67
2022/12/24 03:54:03;;;;;;;;;;;27.80;99.90;;;;;;5013215;28;19921;-62
2022/12/24 03:56:29;;;;;;;;;;;27.80;99.90;;;;;;5013283;28;19917;-62
2022/12/24 03:58:56;;;;;;;;;;;27.70;99.90;;;;;;5013251;28;19913;-63
2022/12/24 04:01:23;;;;;;;;;;;27.60;99.90;;;;;;5013051;28;19910;-65
2022/12/24 04:03:49;;;;;;;;;;;27.70;99.90;;;;;;5013024;28;19925;-66
2022/12/24 04:06:16;;;;;;;;;;;27.80;99.90;;;;;;5013366;28;19920;-62
2022/12/24 04:08:43;;;;;;;;;;;27.80;99.90;;;;;;5012025;28;20325;-62
2022/12/24 04:11:11;;;;;;;;;;;27.70;99.90;;;;;;5011962;28;19909;-62
2022/12/24 04:13:37;;;;;;;;;;;27.90;99.90;;;;;;5012893;28;19909;-62
2022/12/24 04:16:06;;;;;;;;;;;28.00;99.90;;;;;;5013124;28;19909;-62
2022/12/24 04:18:33;;;;;;;;;;;27.90;99.90;;;;;;5013126;28;19936;-65
2022/12/24 04:20:59;;;;;;;;;;;27.90;99.90;;;;;;5013226;28;19909;-63
2022/12/24 04:23:26;;;;;;;;;;;27.80;99.90;;;;;;5013116;28;19980;-62
2022/12/24 04:25:53;;;;;;;;;;;27.90;99.90;;;;;;5015377;28;19909;-62
2022/12/24 04:28:19;;;;;;;;;;;27.80;99.90;;;;;;5016967;28;20392;-62
2022/12/24 04:30:46;;;;;;;;;;;27.70;99.90;;;;;;5017212;28;19910;-62
2022/12/24 04:33:13;;;;;;;;;;;27.80;99.90;;;;;;5015884;28;19914;-63
2022/12/24 04:35:40;;;;;;;;;;;27.80;99.90;;;;;;5017184;28;19917;-67
2022/12/24 04:38:07;;;;;;;;;;;27.80;99.90;;;;;;5017230;28;20339;-62
2022/12/24 04:40:34;;;;;;;;;;;27.80;99.70;;;;;;5017172;28;20387;-72
2022/12/24 04:43:01;;;;;;;;;;;27.70;99.90;;;;;;5016582;28;19917;-82
2022/12/24 04:45:27;;;;;;;;;;;27.60;99.90;;;;;;5016573;28;20442;-74
2022/12/24 04:47:54;;;;;;;;;;;27.70;99.90;;;;;;5016784;28;19913;-67
2022/12/24 04:50:21;;;;;;;;;;;27.80;99.90;;;;;;5016614;28;19925;-73
2022/12/24 04:52:47;;;;;;;;;;;27.80;99.90;;;;;;5016470;28;20000;-67
2022/12/24 04:55:14;;;;;;;;;;;27.80;99.90;;;;;;5016816;28;20372;-72
2022/12/24 04:57:41;;;;;;;;;;;27.80;99.80;;;;;;5016020;28;19921;-72
2022/12/24 05:00:08;;;;;;;;;;;27.80;99.90;;;;;;5016418;28;20265;-77
2022/12/24 05:02:34;;;;;;;;;;;27.80;99.90;;;;;;5016468;28;19949;-71
2022/12/24 05:05:02;;;;;;;;;;;27.80;99.90;;;;;;4998730;28;19917;-70
2022/12/24 05:07:28;;;;;;;;;;;27.70;99.90;;;;;;5016132;28;19909;-78
2022/12/24 05:09:55;;;;;;;;;;;27.60;99.90;;;;;;5016133;28;19909;-76
2022/12/24 05:12:22;;;;;;;;;;;27.60;99.90;;;;;;5016452;28;19931;-64
2022/12/24 05:14:48;;;;;;;;;;;27.40;99.90;;;;;;5016633;28;19909;-74
2022/12/24 05:17:17;;;;;;;;;;;27.30;99.90;;;;;;5016188;28;20276;-70
2022/12/24 05:19:43;;;;;;;;;;;27.40;99.90;;;;;;5016132;28;19909;-68
2022/12/24 05:27:39;;;;;;;;;;;27.40;99.90;;;;;;5016018;28;19916;-73
2022/12/24 05:30:08;;;;;;;;;;;27.30;99.90;;;;;;5015860;28;19913;-68
2022/12/24 05:32:34;;;;;;;;;;;27.30;99.90;;;;;;5015727;28;19996;-63
2022/12/24 05:35:01;;;;;;;;;;;27.50;99.90;;;;;;5015684;28;19909;-62
2022/12/24 05:37:27;;;;;;;;;;;27.40;99.90;;;;;;5014877;28;20355;-78
2022/12/24 05:39:54;;;;;;;;;;;27.30;99.90;;;;;;5015661;28;19913;-78
2022/12/24 05:42:21;;;;;;;;;;;27.20;99.90;;;;;;5015421;28;20368;-64
2022/12/24 05:44:47;;;;;;;;;;;27.20;99.90;;;;;;5015400;28;20388;-71
2022/12/24 05:47:14;;;;;;;;;;;27.20;99.90;;;;;;5015579;28;20005;-75
2022/12/24 05:49:41;;;;;;;;;;;27.20;99.90;;;;;;5015233;28;19971;-72
2022/12/24 05:52:07;;;;;;;;;;;27.20;99.90;;;;;;5015382;28;19909;-72
2022/12/24 05:54:34;;;;;;;;;;;27.20;99.90;;;;;;5015465;28;19990;-76
2022/12/24 05:57:01;;;;;;;;;;;27.20;99.70;;;;;;5015328;28;19936;-66
2022/12/24 05:59:27;;;;;;;;;;;27.30;99.70;;;;;;5015100;28;19910;-68
2022/12/24 06:01:54;;;;;;;;;;;27.30;99.10;;;;;;5015462;28;19921;-70
2022/12/24 06:04:21;;;;;;;;;;;27.40;99.60;;;;;;5015138;28;19917;-63
2022/12/24 06:06:47;;;;;;;;;;;27.40;99.30;;;;;;5015374;28;20320;-63
2022/12/24 06:09:15;;;;;;;;;;;27.30;99.40;;;;;;5015060;28;19909;-67
2022/12/24 06:11:42;;;;;;;;;;;27.30;98.90;;;;;;5015146;28;19949;-61
2022/12/24 06:14:09;;;;;;;;;;;27.20;98.80;;;;;;5015181;28;19963;-64
2022/12/24 06:16:35;;;;;;;;;;;27.20;98.80;;;;;;5015099;28;19916;-62
2022/12/24 06:19:02;;;;;;;;;;;27.20;98.50;;;;;;5014933;28;19920;-62
2022/12/24 06:21:29;;;;;;;;;;;27.20;98.70;;;;;;5014720;28;19909;-67
2022/12/24 06:23:55;;;;;;;;;;;27.20;98.50;;;;;;5014798;28;20372;-60
2022/12/24 06:26:22;;;;;;;;;;;27.20;98.00;;;;;;5014854;28;19913;-65
2022/12/24 06:28:49;;;;;;;;;;;27.20;97.70;;;;;;5014785;28;19910;-66
2022/12/24 06:31:17;;;;;;;;;;;27.30;97.30;;;;;;5014425;28;19913;-72
2022/12/24 06:33:44;;;;;;;;;;;27.20;97.60;;;;;;5014737;28;19959;-61
2022/12/24 06:36:15;;;;;;;;;;;27.20;97.70;;;;;;5014734;28;20003;-68
2022/12/24 06:38:41;;;;;;;;;;;27.30;97.90;;;;;;5014641;28;19910;-67
2022/12/24 06:41:08;;;;;;;;;;;27.30;97.70;;;;;;5014401;28;19910;-61
2022/12/24 06:43:35;;;;;;;;;;;27.30;97.90;;;;;;5014103;28;20256;-67
2022/12/24 06:46:02;;;;;;;;;;;27.30;97.90;;;;;;5014160;28;19910;-65
2022/12/24 06:48:29;;;;;;;;;;;27.30;98.00;;;;;;5013572;28;19963;-71
2022/12/24 06:50:56;;;;;;;;;;;27.30;97.40;;;;;;5014390;28;20383;-61
2022/12/24 06:53:22;;;;;;;;;;;27.30;97.30;;;;;;5013808;28;19918;-71
2022/12/24 06:55:49;;;;;;;;;;;27.30;97.40;;;;;;5014337;28;19910;-62
2022/12/24 06:58:15;;;;;;;;;;;27.30;97.80;;;;;;5013808;28;19914;-61
2022/12/24 07:00:42;;;;;;;;;;;27.30;97.10;;;;;;5014107;28;19909;-61
2022/12/24 07:03:09;;;;;;;;;;;27.30;97.70;;;;;;5012794;28;20259;-61
2022/12/24 07:05:35;;;;;;;;;;;27.40;97.30;;;;;;5013932;28;20248;-61
2022/12/24 07:08:02;;;;;;;;;;;27.30;97.40;;;;;;5014083;28;20252;-71
2022/12/24 07:10:29;;;;;;;;;;;27.30;97.50;;;;;;5014112;28;19963;-76
2022/12/24 07:12:55;;;;;;;;;;;27.20;97.60;;;;;;5013881;28;20372;-71
2022/12/24 07:15:22;;;;;;;;;;;27.30;98.10;;;;;;5013778;28;19910;-62
2022/12/24 07:17:49;;;;;;;;;;;27.30;98.50;;;;;;5013799;28;19992;-64
2022/12/24 07:20:15;;;;;;;;;;;27.30;99.60;;;;;;5013926;28;20359;-61
2022/12/24 07:22:42;;;;;;;;;;;27.20;99.90;;;;;;5013646;28;20341;-67
2022/12/24 07:25:10;;;;;;;;;;;27.20;99.90;;;;;;5013858;28;19913;-68
2022/12/24 07:27:37;;;;;;;;;;;27.10;99.90;;;;;;5013082;28;20295;-65
2022/12/24 07:30:04;;;;;;;;;;;26.90;99.90;;;;;;5013554;28;20287;-63
2022/12/24 07:32:31;;;;;;;;;;;26.80;99.90;;;;;;5013571;28;19910;-61
2022/12/24 07:34:57;;;;;;;;;;;26.70;99.90;;;;;;5013488;28;19909;-68
2022/12/24 07:37:24;;;;;;;;;;;26.70;99.90;;;;;;5013486;28;19971;-61
2022/12/24 07:39:51;;;;;;;;;;;26.70;99.90;;;;;;5013481;28;20383;-61
2022/12/24 07:42:17;;;;;;;;;;;26.60;99.90;;;;;;5013175;28;20032;-77
2022/12/24 07:44:44;;;;;;;;;;;26.60;99.90;;;;;;5013288;28;19909;-61
2022/12/24 07:47:11;;;;;;;;;;;26.50;99.90;;;;;;5013317;28;19981;-62
2022/12/24 07:49:37;;;;;;;;;;;26.40;99.90;;;;;;5013043;28;20356;-69
2022/12/24 07:52:04;;;;;;;;;;;26.30;99.90;;;;;;5013204;28;19910;-61
2022/12/24 07:54:31;;;;;;;;;;;26.20;99.90;;;;;;5013025;28;19944;-62
2022/12/24 07:56:57;;;;;;;;;;;26.10;99.90;;;;;;5012972;28;19917;-61
2022/12/24 07:59:24;;;;;;;;;;;26.10;99.90;;;;;;5012821;28;19909;-74
2022/12/24 08:01:51;;;;;;;;;;;26.00;99.90;;;;;;5012867;28;19937;-65
2022/12/24 08:04:17;;;;;;;;;;;26.00;99.90;;;;;;5012993;28;19918;-72
2022/12/24 08:06:44;;;;;;;;;;;25.80;99.90;;;;;;5013088;28;19948;-71
2022/12/24 08:09:13;;;;;;;;;;;25.80;99.90;;;;;;5013020;28;19916;-69
2022/12/24 08:11:39;;;;;;;;;;;25.70;99.90;;;;;;5012549;28;20299;-61
2022/12/24 08:14:06;;;;;;;;;;;25.70;99.90;;;;;;5012925;28;20399;-64
2022/12/24 08:16:32;;;;;;;;;;;25.60;99.90;;;;;;5012979;28;19928;-60
2022/12/24 08:18:59;;;;;;;;;;;25.50;99.90;;;;;;5012933;28;19963;-63
2022/12/24 08:21:26;;;;;;;;;;;25.50;99.90;;;;;;5012657;28;19917;-61
2022/12/24 08:23:52;;;;;;;;;;;25.40;99.90;;;;;;5012790;28;19918;-65
2022/12/24 08:26:19;;;;;;;;;;;25.40;99.90;;;;;;5012675;28;19916;-69
2022/12/24 08:28:46;;;;;;;;;;;25.30;99.90;;;;;;5012803;28;19913;-68
2022/12/24 08:31:15;;;;;;;;;;;25.20;99.90;;;;;;5012623;28;20300;-66
2022/12/24 08:33:42;;;;;;;;;;;25.20;99.90;;;;;;5012592;28;19995;-68
2022/12/24 08:36:09;;;;;;;;;;;25.20;99.90;;;;;;5012666;28;19909;-69
2022/12/24 08:38:35;;;;;;;;;;;25.10;99.90;;;;;;5012807;28;19953;-64
2022/12/24 08:41:02;;;;;;;;;;;25.00;99.90;;;;;;5012678;28;19920;-66
2022/12/24 08:43:29;;;;;;;;;;;25.00;99.90;;;;;;5012562;28;19918;-68
2022/12/24 08:45:55;;;;;;;;;;;25.00;99.90;;;;;;5012771;28;20100;-70
2022/12/24 08:48:22;;;;;;;;;;;25.00;99.90;;;;;;5012709;28;19913;-67
2022/12/24 08:50:49;;;;;;;;;;;24.90;99.90;;;;;;5012711;28;19913;-76
2022/12/24 08:53:15;;;;;;;;;;;24.90;99.90;;;;;;5012464;28;19921;-65
2022/12/24 08:55:42;;;;;;;;;;;24.90;99.90;;;;;;5012824;28;19945;-65
2022/12/24 08:58:09;;;;;;;;;;;24.80;99.90;;;;;;5011385;28;20348;-72
2022/12/24 09:00:36;;;;;;;;;;;24.80;99.90;;;;;;5012609;28;19918;-63
2022/12/24 09:03:03;;;;;;;;;;;24.80;99.90;;;;;;5012653;28;19920;-73
2022/12/24 09:05:30;;;;;;;;;;;24.80;99.90;;;;;;5012345;28;20356;-68
2022/12/24 09:07:56;;;;;;;;;;;24.80;99.90;;;;;;5012786;28;19949;-74
2022/12/24 09:10:23;;;;;;;;;;;24.60;99.90;;;;;;5012637;28;19971;-69
2022/12/24 09:12:50;;;;;;;;;;;24.60;99.90;;;;;;5014426;28;19945;-70
2022/12/24 09:15:17;;;;;;;;;;;24.60;99.90;;;;;;5016029;28;20360;-61
2022/12/24 09:17:44;;;;;;;;;;;24.50;99.90;;;;;;5016169;28;19913;-62
2022/12/24 09:20:11;;;;;;;;;;;24.50;99.90;;;;;;5015998;28;20379;-67
2022/12/24 09:22:38;;;;;;;;;;;24.50;99.90;;;;;;5016273;28;19918;-66
2022/12/24 09:25:05;;;;;;;;;;;24.40;99.90;;;;;;5016340;28;19917;-68
2022/12/24 09:27:32;;;;;;;;;;;24.30;99.90;;;;;;5015577;28;19910;-64
2022/12/24 09:29:58;;;;;;;;;;;24.40;99.90;;;;;;5015928;28;20372;-62
2022/12/24 09:32:25;;;;;;;;;;;24.30;99.90;;;;;;5015947;28;19940;-65
2022/12/24 09:34:51;;;;;;;;;;;24.30;99.90;;;;;;5015853;28;20273;-71
2022/12/24 09:37:18;;;;;;;;;;;24.30;99.90;;;;;;5015550;28;19910;-70
2022/12/24 09:39:45;;;;;;;;;;;24.30;99.90;;;;;;5015672;28;19913;-71
2022/12/24 09:42:21;;;;;;;;;;;24.30;99.90;;;;;;5015600;28;20341;-71
2022/12/24 09:44:47;;;;;;;;;;;24.20;99.90;;;;;;5015971;28;19913;-63
2022/12/24 09:47:23;;;;;;;;;;;24.20;99.90;;;;;;5015920;28;20378;-69
2022/12/24 09:49:52;;;;;;;;;;;24.20;99.90;;;;;;5015951;28;19957;-64
2022/12/24 09:52:50;;;;;;;;;;;24.20;99.90;;;;;;5015751;28;20399;-65
2022/12/24 09:55:28;;;;;;;;;;;24.20;99.90;;;;;;4972222;28;19928;-61
2022/12/24 09:57:57;;;;;;;;;;;24.20;99.90;;;;;;5015728;28;19921;-73
2022/12/24 10:00:29;;;;;;;;;;;24.20;99.90;;;;;;5015650;28;20376;-65
2022/12/24 10:02:56;;;;;;;;;;;24.30;99.90;;;;;;5015690;28;19966;-61
2022/12/24 10:05:32;;;;;;;;;;;24.30;99.90;;;;;;5015387;28;19920;-60
2022/12/24 10:08:05;;;;;;;;;;;24.20;99.90;;;;;;4998065;28;19910;-67
2022/12/24 10:10:52;;;;;;;;;;;24.20;99.90;;;;;;5015223;28;19910;-68
2022/12/24 10:13:37;;;;;;;;;;;24.30;99.90;;;;;;5015106;28;20382;-70
2022/12/24 10:16:23;;;;;;;;;;;24.30;99.90;;;;;;5015458;28;19963;-65
2022/12/24 10:19:04;;;;;;;;;;;24.30;99.90;;;;;;5015052;28;19913;-69
2022/12/24 10:21:32;;;;;;;;;;;24.30;99.90;;;;;;5015111;28;19910;-60
2022/12/24 10:24:13;;;;;;;;;;;24.30;99.90;;;;;;5014970;28;20008;-61
2022/12/24 10:26:52;;;;;;;;;;;24.30;99.90;;;;;;5014825;28;19976;-63
2022/12/24 10:29:37;;;;;;;;;;;24.30;99.90;;;;;;5013806;28;19936;-62
2022/12/24 10:32:06;;;;;;;;;;;24.30;99.90;;;;;;5015133;28;19910;-61
2022/12/24 10:34:37;;;;;;;;;;;24.30;99.90;;;;;;5014971;28;19909;-61
2022/12/24 10:37:05;;;;;;;;;;;24.30;99.90;;;;;;5015168;28;19909;-62
2022/12/24 10:39:32;;;;;;;;;;;24.30;99.90;;;;;;5014999;28;20005;-67
2022/12/24 10:41:59;;;;;;;;;;;24.30;99.90;;;;;;5014812;28;19956;-70
2022/12/24 10:44:29;;;;;;;;;;;24.30;99.90;;;;;;5014791;28;19965;-64
2022/12/24 10:46:56;;;;;;;;;;;24.30;99.90;;;;;;5014801;28;20299;-60
2022/12/24 10:49:33;;;;;;;;;;;24.30;99.90;;;;;;5014596;28;19969;-60
2022/12/24 10:52:05;;;;;;;;;;;24.30;99.90;;;;;;5014827;28;19939;-66
2022/12/24 10:54:38;;;;;;;;;;;24.30;99.90;;;;;;5014576;28;20008;-61
2022/12/24 10:57:05;;;;;;;;;;;24.30;99.90;;;;;;5014247;28;19964;-64
2022/12/24 10:59:34;;;;;;;;;;;24.20;99.90;;;;;;5014347;28;20394;-66
2022/12/24 11:02:01;;;;;;;;;;;24.20;99.90;;;;;;5014737;28;19910;-61
2022/12/24 11:04:29;;;;;;;;;;;24.20;99.90;;;;;;5014699;28;19921;-70
2022/12/24 11:06:57;;;;;;;;;;;24.20;99.90;;;;;;5014734;28;19923;-65
2022/12/24 11:09:28;;;;;;;;;;;24.10;99.90;;;;;;5014654;28;19909;-64
2022/12/24 11:11:58;;;;;;;;;;;24.10;99.90;;;;;;5014495;28;19910;-68
2022/12/24 11:14:27;;;;;;;;;;;24.10;99.90;;;;;;5014477;28;19909;-60
2022/12/24 11:16:55;;;;;;;;;;;24.10;99.90;;;;;;5014331;28;19921;-63
2022/12/24 11:19:32;;;;;;;;;;;24.20;99.90;;;;;;5014105;28;20296;-67
2022/12/24 11:22:00;;;;;;;;;;;24.10;99.90;;;;;;5014422;28;19910;-63
2022/12/24 11:24:29;;;;;;;;;;;24.10;99.90;;;;;;5014068;28;20264;-68
2022/12/24 11:27:15;;;;;;;;;;;24.00;99.90;;;;;;5014034;28;19937;-60
2022/12/24 11:29:42;;;;;;;;;;;24.00;99.90;;;;;;5013954;28;20075;-65
2022/12/24 11:32:19;;;;;;;;;;;24.00;99.90;;;;;;5014273;28;20380;-65
2022/12/24 11:34:47;;;;;;;;;;;24.00;99.90;;;;;;5013371;28;19998;-68
2022/12/24 11:37:16;;;;;;;;;;;24.00;99.90;;;;;;5013950;28;19917;-67
2022/12/24 11:39:45;;;;;;;;;;;23.90;99.90;;;;;;5013963;28;20368;-66
2022/12/24 11:42:28;;;;;;;;;;;24.00;99.90;;;;;;5014059;28;19910;-69
2022/12/24 11:44:55;;;;;;;;;;;23.90;99.90;;;;;;5013793;28;20280;-73
2022/12/24 11:47:32;;;;;;;;;;;23.80;99.90;;;;;;5013532;28;19917;-60
2022/12/24 11:50:19;;;;;;;;;;;23.80;99.90;;;;;;5013824;28;20372;-72
2022/12/24 11:53:11;;;;;;;;;;;23.70;99.90;;;;;;4999843;28;19918;-63
2022/12/24 11:55:46;;;;;;;;;;;23.60;99.90;;;;;;5009638;28;19960;-68
2022/12/24 11:58:16;;;;;;;;;;;23.60;99.90;;;;;;5013010;28;19922;-71
2022/12/24 12:00:48;;;;;;;;;;;23.50;99.90;;;;;;5013423;28;19909;-66
2022/12/24 12:03:32;;;;;;;;;;;23.50;99.90;;;;;;5013325;28;19928;-68
2022/12/24 12:06:04;;;;;;;;;;;23.40;99.90;;;;;;5013436;28;19936;-66
2022/12/24 12:08:32;;;;;;;;;;;23.30;99.90;;;;;;5013113;28;19913;-68
2022/12/24 12:10:59;;;;;;;;;;;23.20;99.90;;;;;;5012993;28;20376;-62
2022/12/24 12:13:31;;;;;;;;;;;23.20;99.90;;;;;;5012445;28;19963;-68
2022/12/24 12:16:04;;;;;;;;;;;23.20;99.90;;;;;;5012602;28;19920;-68
2022/12/24 12:18:38;;;;;;;;;;;23.10;99.90;;;;;;5013291;28;19917;-75
2022/12/24 12:21:14;;;;;;;;;;;23.00;99.90;;;;;;5013522;28;19916;-74
2022/12/24 12:24:03;;;;;;;;;;;22.90;99.90;;;;;;5013307;28;19925;-76
2022/12/24 12:26:32;;;;;;;;;;;22.90;99.90;;;;;;5013350;28;19909;-79
2022/12/24 12:29:05;;;;;;;;;;;22.80;99.90;;;;;;5013524;28;19938;-79
2022/12/24 12:31:34;;;;;;;;;;;22.80;99.90;;;;;;5013388;28;19909;-78
2022/12/24 12:34:10;;;;;;;;;;;22.80;99.90;;;;;;5013116;28;19914;-72
2022/12/24 12:36:42;;;;;;;;;;;22.80;99.90;;;;;;5013318;28;19963;-74
2022/12/24 12:39:10;;;;;;;;;;;22.90;99.90;;;;;;5013345;28;20364;-74
2022/12/24 12:41:43;;;;;;;;;;;22.80;99.90;;;;;;5012245;28;20401;-65
2022/12/24 12:44:10;;;;;;;;;;;22.90;99.90;;;;;;5012551;28;19917;-78
2022/12/24 12:46:55;;;;;;;;;;;22.80;99.90;;;;;;5013258;28;20356;-76
2022/12/24 12:49:39;;;;;;;;;;;22.90;99.90;;;;;;5017047;28;19971;-73
2022/12/24 12:52:15;;;;;;;;;;;23.00;99.90;;;;;;5016909;28;19926;-78
2022/12/24 12:55:00;;;;;;;;;;;23.00;99.90;;;;;;5016444;28;19922;-73
2022/12/24 12:57:30;;;;;;;;;;;23.00;99.90;;;;;;5016675;28;19918;-65
2022/12/24 13:00:05;;;;;;;;;;;23.00;99.90;;;;;;5016611;28;19945;-79
2022/12/24 13:02:32;;;;;;;;;;;23.00;99.90;;;;;;5007607;28;20431;-79
2022/12/24 13:05:16;;;;;;;;;;;22.90;99.90;;;;;;5016966;28;19967;-78
2022/12/24 13:08:01;;;;;;;;;;;22.90;99.90;;;;;;5016747;28;19914;-75
2022/12/24 13:10:37;;;;;;;;;;;22.90;99.90;;;;;;5015861;28;19948;-77
2022/12/24 13:13:15;;;;;;;;;;;22.90;99.90;;;;;;5016391;28;19913;-80
2022/12/24 13:15:45;;;;;;;;;;;22.80;99.90;;;;;;5016539;28;20261;-80
2022/12/24 13:18:29;;;;;;;;;;;22.70;99.90;;;;;;5016030;28;19913;-80
2022/12/24 13:20:56;;;;;;;;;;;22.60;99.90;;;;;;5016336;28;19918;-80
2022/12/24 13:23:24;;;;;;;;;;;22.60;99.90;;;;;;5016228;28;19917;-76
2022/12/24 13:25:51;;;;;;;;;;;22.60;99.90;;;;;;5015740;28;19957;-77
2022/12/24 13:28:24;;;;;;;;;;;22.50;99.90;;;;;;5016258;28;19914;-81
2022/12/24 13:30:52;;;;;;;;;;;22.40;99.90;;;;;;5016073;28;19960;-78
2022/12/24 13:33:34;;;;;;;;;;;22.30;99.90;;;;;;5015227;28;19914;-80
2022/12/24 13:36:20;;;;;;;;;;;22.30;99.90;;;;;;5015942;28;19913;-79
2022/12/24 13:38:47;;;;;;;;;;;22.20;99.90;;;;;;5016003;28;20004;-80
2022/12/24 13:41:37;;;;;;;;;;;22.10;99.90;;;;;;5015428;28;19959;-79
2022/12/24 13:44:11;;;;;;;;;;;22.10;99.90;;;;;;5015588;28;19922;-80
2022/12/24 13:46:56;;;;;;;;;;;22.20;99.90;;;;;;5015436;28;19913;-75
2022/12/24 13:49:28;;;;;;;;;;;22.10;99.90;;;;;;5015440;28;19957;-78
2022/12/24 13:52:17;;;;;;;;;;;22.00;99.90;;;;;;5015607;28;19917;-75
2022/12/24 13:54:56;;;;;;;;;;;22.00;99.90;;;;;;5005466;28;19928;-79
2022/12/24 13:57:23;;;;;;;;;;;22.00;99.90;;;;;;5014883;28;19914;-80
2022/12/24 13:59:54;;;;;;;;;;;22.00;99.90;;;;;;5014705;28;20291;-76
2022/12/24 14:02:21;;;;;;;;;;;22.00;99.90;;;;;;5013647;28;19968;-64
2022/12/24 14:04:49;;;;;;;;;;;22.00;99.90;;;;;;5015268;28;19917;-80
2022/12/24 14:07:19;;;;;;;;;;;22.00;99.90;;;;;;5015131;28;19917;-81
2022/12/24 14:09:49;;;;;;;;;;;22.00;99.90;;;;;;5015366;28;20319;-76
2022/12/24 14:12:29;;;;;;;;;;;22.00;99.90;;;;;;5014910;28;19913;-71
2022/12/24 14:14:56;;;;;;;;;;;21.90;99.90;;;;;;5015220;28;19967;-80
2022/12/24 14:17:28;;;;;;;;;;;21.90;99.90;;;;;;5014435;28;19963;-75
2022/12/24 14:19:59;;;;;;;;;;;21.80;99.90;;;;;;5015354;28;19916;-80
2022/12/24 14:22:28;;;;;;;;;;;21.90;99.90;;;;;;5015019;28;19913;-81
2022/12/24 14:25:07;;;;;;;;;;;21.80;99.90;;;;;;5015454;28;19960;-80
2022/12/24 14:27:38;;;;;;;;;;;21.80;99.90;;;;;;5014927;28;19921;-80
2022/12/24 14:30:05;;;;;;;;;;;21.70;99.90;;;;;;5015392;28;19955;-80
2022/12/24 14:32:39;;;;;;;;;;;21.70;99.90;;;;;;5015248;28;19913;-81
2022/12/24 14:35:20;;;;;;;;;;;21.60;99.90;;;;;;5014973;28;20359;-80
2022/12/24 14:37:59;;;;;;;;;;;21.50;99.90;;;;;;4995485;28;20368;-79
2022/12/24 14:40:27;;;;;;;;;;;21.50;99.90;;;;;;4995283;28;19948;-80